createdAt,value
2022-08-24T00:00:08.962Z,61.78
2022-08-24T00:02:35.604Z,61.71
2022-08-24T00:05:02.249Z,61.97
2022-08-24T00:07:28.885Z,62.26
2022-08-24T00:09:55.921Z,62.15
2022-08-24T00:12:22.405Z,62.34
2022-08-24T00:14:49.497Z,61.86
2022-08-24T00:17:16.850Z,62.34
2022-08-24T00:19:43.803Z,62.30
2022-08-24T00:22:10.307Z,62.29
2022-08-24T00:24:37.039Z,62.55
2022-08-24T00:27:04.392Z,62.66
2022-08-24T00:29:30.970Z,62.60
2022-08-24T00:31:57.468Z,62.64
2022-08-24T00:34:24.043Z,62.77
2022-08-24T00:36:50.808Z,62.87
2022-08-24T00:39:17.392Z,63.24
2022-08-24T00:41:46.857Z,63.09
2022-08-24T00:44:14.337Z,63.16
2022-08-24T00:46:44.409Z,63.55
2022-08-24T00:49:19.847Z,63.69
2022-08-24T00:51:55.577Z,64.06
2022-08-24T00:54:26.036Z,63.68
2022-08-24T00:56:56.676Z,63.70
2022-08-24T00:59:32.669Z,63.60
2022-08-24T01:02:15.579Z,63.61
2022-08-24T01:04:51.940Z,64.04
2022-08-24T01:07:27.218Z,63.99
2022-08-24T01:09:56.464Z,64.02
2022-08-24T01:12:25.299Z,64.07
2022-08-24T01:14:52.379Z,64.22
2022-08-24T01:17:39.057Z,64.08
2022-08-24T01:20:08.699Z,63.76
2022-08-24T01:22:56.522Z,63.87
2022-08-24T01:25:26.201Z,64.34
2022-08-24T01:27:55.822Z,64.23
2022-08-24T01:30:30.473Z,64.70
2022-08-24T01:33:06.450Z,64.50
2022-08-24T01:35:36.549Z,64.17
2022-08-24T01:38:08.178Z,64.57
2022-08-24T01:40:36.967Z,64.52
2022-08-24T01:43:06.464Z,64.75
2022-08-24T01:45:33.374Z,64.72
2022-08-24T01:48:00.016Z,64.60
2022-08-24T01:50:26.875Z,64.42
2022-08-24T01:53:08.840Z,64.52
2022-08-24T01:55:36.509Z,64.96
2022-08-24T01:58:04.312Z,65.23
2022-08-24T02:00:30.983Z,65.17
2022-08-24T02:02:57.662Z,65.87
2022-08-24T02:05:25.698Z,65.91
2022-08-24T02:07:52.969Z,65.92
2022-08-24T02:10:19.733Z,66.13
2022-08-24T02:12:57.708Z,66.27
2022-08-24T02:15:42.739Z,66.02
2022-08-24T02:18:15.391Z,66.03
2022-08-24T02:20:43.089Z,66.63
2022-08-24T02:23:09.663Z,66.96
2022-08-24T02:25:36.211Z,67.01
2022-08-24T02:28:03.106Z,67.20
2022-08-24T02:30:30.096Z,67.43
2022-08-24T02:32:57.588Z,68.59
2022-08-24T02:35:24.570Z,70.35
2022-08-24T02:37:52.177Z,70.67
2022-08-24T02:40:18.715Z,70.58
2022-08-24T02:42:45.880Z,70.87
2022-08-24T02:45:12.556Z,71.33
2022-08-24T02:47:39.489Z,71.00
2022-08-24T02:50:09.031Z,70.80
2022-08-24T02:52:37.423Z,70.81
2022-08-24T02:55:04.624Z,70.18
2022-08-24T02:57:31.113Z,71.84
2022-08-24T02:59:57.630Z,72.18
2022-08-24T03:02:24.194Z,71.11
2022-08-24T03:04:50.705Z,71.19
2022-08-24T03:07:17.219Z,71.28
2022-08-24T03:09:43.689Z,70.76
2022-08-24T03:12:10.358Z,70.75
2022-08-24T03:14:37.206Z,70.62
2022-08-24T03:17:04.038Z,70.38
2022-08-24T03:19:30.690Z,70.72
2022-08-24T03:21:57.677Z,70.30
2022-08-24T03:24:24.197Z,70.60
2022-08-24T03:26:50.879Z,70.65
2022-08-24T03:29:17.702Z,71.04
2022-08-24T03:31:44.512Z,70.50
2022-08-24T03:34:13.456Z,70.16
2022-08-24T03:36:41.661Z,70.10
2022-08-24T03:39:08.169Z,69.97
2022-08-24T03:41:36.608Z,69.69
2022-08-24T03:44:04.045Z,69.93
2022-08-24T03:46:36.785Z,69.93
2022-08-24T03:49:06.770Z,70.08
2022-08-24T03:51:33.262Z,70.30
2022-08-24T03:54:00.100Z,70.06
2022-08-24T03:56:27.763Z,69.98
2022-08-24T03:58:55.069Z,70.02
2022-08-24T04:01:22.427Z,70.29
2022-08-24T04:03:50.060Z,70.14
2022-08-24T04:06:19.259Z,69.89
2022-08-24T04:08:46.685Z,70.11
2022-08-24T04:11:19.671Z,70.07
2022-08-24T04:13:46.925Z,69.96
2022-08-24T04:16:17.942Z,69.91
2022-08-24T04:18:44.918Z,70.11
2022-08-24T04:21:25.057Z,69.93
2022-08-24T04:23:52.539Z,70.26
2022-08-24T04:26:28.668Z,69.87
2022-08-24T04:29:10.095Z,70.04
2022-08-24T04:31:38.261Z,69.51
2022-08-24T04:34:06.028Z,69.30
2022-08-24T04:36:32.824Z,69.76
2022-08-24T04:39:00.918Z,69.54
2022-08-24T04:41:31.107Z,69.48
2022-08-24T04:43:59.354Z,69.54
2022-08-24T04:46:26.794Z,69.59
2022-08-24T04:48:53.556Z,69.81
2022-08-24T04:51:21.226Z,69.74
2022-08-24T04:53:48.957Z,69.83
2022-08-24T04:56:23.147Z,69.43
2022-08-24T04:58:50.954Z,69.48
2022-08-24T05:01:21.979Z,69.48
2022-08-24T05:03:50.500Z,69.62
2022-08-24T05:06:21.990Z,69.10
2022-08-24T05:08:48.798Z,68.88
2022-08-24T05:11:17.588Z,68.76
2022-08-24T05:13:44.349Z,68.63
2022-08-24T05:16:14.131Z,68.63
2022-08-24T05:18:41.706Z,68.26
2022-08-24T05:21:12.304Z,68.18
2022-08-24T05:23:39.914Z,67.70
2022-08-24T05:26:14.761Z,67.56
2022-08-24T05:28:41.836Z,67.45
2022-08-24T05:31:09.727Z,67.29
2022-08-24T05:33:36.891Z,66.91
2022-08-24T05:36:04.529Z,66.64
2022-08-24T05:38:33.302Z,66.67
2022-08-24T05:41:05.490Z,66.28
2022-08-24T05:43:32.279Z,65.88
2022-08-24T05:45:58.745Z,65.80
2022-08-24T05:48:25.237Z,65.62
2022-08-24T05:50:53.878Z,65.57
2022-08-24T05:53:20.379Z,65.64
2022-08-24T05:55:47.096Z,65.38
2022-08-24T05:58:15.290Z,66.17
2022-08-24T06:00:50.301Z,66.13
2022-08-24T06:03:17.180Z,66.07
2022-08-24T06:05:45.151Z,66.37
2022-08-24T06:08:11.749Z,65.93
2022-08-24T06:10:47.647Z,65.80
2022-08-24T06:13:14.682Z,65.21
2022-08-24T06:15:42.755Z,64.77
2022-08-24T06:18:14.760Z,64.99
2022-08-24T06:20:43.009Z,64.23
2022-08-24T06:23:12.622Z,63.43
2022-08-24T06:25:58.710Z,63.13
2022-08-24T06:28:25.912Z,62.35
2022-08-24T06:31:05.340Z,62.48
2022-08-24T06:33:31.867Z,62.45
2022-08-24T06:35:58.413Z,62.41
2022-08-24T06:38:25.651Z,63.42
2022-08-24T06:40:52.485Z,62.12
2022-08-24T06:43:18.986Z,61.78
2022-08-24T06:45:46.464Z,62.51
2022-08-24T06:48:12.932Z,62.49
2022-08-24T06:50:39.979Z,62.67
2022-08-24T06:53:06.467Z,62.24
2022-08-24T06:55:33.226Z,61.61
2022-08-24T06:58:00.077Z,61.60
2022-08-24T07:00:26.573Z,61.22
2022-08-24T07:02:53.125Z,62.26
2022-08-24T07:05:19.680Z,61.88
2022-08-24T07:07:46.860Z,61.71
2022-08-24T07:10:13.345Z,61.48
2022-08-24T07:12:39.880Z,62.18
2022-08-24T07:15:16.257Z,61.61
2022-08-24T07:17:43.130Z,61.25
2022-08-24T07:20:10.430Z,60.83
2022-08-24T07:22:36.923Z,60.35
2022-08-24T07:25:04.398Z,61.26
2022-08-24T07:27:31.379Z,59.79
2022-08-24T07:30:23.122Z,59.82
2022-08-24T07:32:44.340Z,60.53
2022-08-24T07:35:10.832Z,59.28
2022-08-24T07:37:41.264Z,59.47
2022-08-24T07:40:09.306Z,59.39
2022-08-24T07:42:35.901Z,59.23
2022-08-24T07:45:02.741Z,59.67
2022-08-24T07:47:54.617Z,59.97
2022-08-24T07:50:18.033Z,58.70
2022-08-24T07:52:45.668Z,59.53
2022-08-24T07:55:13.959Z,58.69
2022-08-24T07:57:41.833Z,58.60
2022-08-24T08:00:11.465Z,57.60
2022-08-24T08:02:39.956Z,57.97
2022-08-24T08:05:06.843Z,56.86
2022-08-24T08:07:33.536Z,56.39
2022-08-24T08:10:01.925Z,56.26
2022-08-24T08:12:28.404Z,55.10
2022-08-24T08:14:55.006Z,54.52
2022-08-24T08:17:21.522Z,53.82
2022-08-24T08:19:48.086Z,53.95
2022-08-24T08:22:33.051Z,53.20
2022-08-24T08:24:59.556Z,53.09
2022-08-24T08:27:26.435Z,53.50
2022-08-24T08:29:53.048Z,53.03
2022-08-24T08:32:20.143Z,51.92
2022-08-24T08:34:47.549Z,52.66
2022-08-24T08:37:15.189Z,49.20
2022-08-24T08:39:42.027Z,48.27
2022-08-24T08:42:31.727Z,45.06
2022-08-24T08:45:25.308Z,42.46
2022-08-24T08:48:17.236Z,43.80
2022-08-24T08:51:05.703Z,44.30
2022-08-24T08:53:57.625Z,45.01
2022-08-24T08:56:44.090Z,46.02
2022-08-24T08:59:10.519Z,44.77
2022-08-24T09:01:44.270Z,45.77
2022-08-24T09:04:32.403Z,45.90
2022-08-24T09:07:37.715Z,45.95
2022-08-24T09:10:23.791Z,46.53
2022-08-24T09:12:59.025Z,46.75
2022-08-24T09:15:50.504Z,47.38
2022-08-24T09:18:37.640Z,48.13
2022-08-24T09:21:38.268Z,48.05
2022-08-24T09:24:16.545Z,47.72
2022-08-24T09:26:55.893Z,48.37
2022-08-24T09:29:47.316Z,48.29
2022-08-24T09:32:32.112Z,48.46
2022-08-24T09:35:03.322Z,48.86
2022-08-24T09:38:04.375Z,50.48
2022-08-24T09:40:42.870Z,48.42
2022-08-24T09:43:31.498Z,48.49
2022-08-24T09:46:09.050Z,49.48
2022-08-24T09:48:39.340Z,48.43
2022-08-24T09:51:05.754Z,49.11
2022-08-24T09:53:47.658Z,48.95
2022-08-24T09:56:26.341Z,49.69
2022-08-24T09:59:18.580Z,49.96
2022-08-24T10:02:03.454Z,50.20
2022-08-24T10:04:44.800Z,47.98
2022-08-24T10:07:17.548Z,45.38
2022-08-24T10:09:52.779Z,45.75
2022-08-24T10:12:22.019Z,48.16
2022-08-24T10:15:05.635Z,48.95
2022-08-24T10:17:43.746Z,49.13
2022-08-24T10:20:26.314Z,49.86
2022-08-24T10:23:17.121Z,49.61
2022-08-24T10:25:52.484Z,48.44
2022-08-24T10:28:36.354Z,48.10
2022-08-24T10:31:12.076Z,48.79
2022-08-24T10:34:16.722Z,49.47
2022-08-24T10:36:57.624Z,49.79
2022-08-24T10:39:51.774Z,48.69
2022-08-24T10:42:52.537Z,46.06
2022-08-24T10:45:41.559Z,44.36
2022-08-24T10:48:33.344Z,43.05
2022-08-24T10:51:19.166Z,43.44
2022-08-24T10:53:51.237Z,44.82
2022-08-24T10:56:20.450Z,44.08
2022-08-24T10:58:49.979Z,46.25
2022-08-24T11:01:22.478Z,45.01
2022-08-24T11:03:59.202Z,45.63
2022-08-24T11:06:30.858Z,48.43
2022-08-24T11:09:05.379Z,48.79
2022-08-24T11:11:44.923Z,48.93
2022-08-24T11:14:30.279Z,47.62
2022-08-24T11:17:24.689Z,47.61
2022-08-24T11:19:52.225Z,47.17
2022-08-24T11:22:44.154Z,46.14
2022-08-24T11:25:19.139Z,44.91
2022-08-24T11:27:52.737Z,44.89
2022-08-24T11:30:24.610Z,44.49
2022-08-24T11:33:06.288Z,44.83
2022-08-24T11:35:35.566Z,44.07
2022-08-24T11:38:19.289Z,43.29
2022-08-24T11:41:00.871Z,40.20
2022-08-24T11:44:05.248Z,39.27
2022-08-24T11:46:39.299Z,37.13
2022-08-24T11:49:05.770Z,35.53
2022-08-24T11:51:36.912Z,33.34
2022-08-24T11:54:09.409Z,31.71
2022-08-24T11:57:11.086Z,31.88
2022-08-24T11:59:58.886Z,33.27
2022-08-24T12:02:34.698Z,34.29
2022-08-24T12:05:14.045Z,35.17
2022-08-24T12:08:05.555Z,36.07
2022-08-24T12:10:40.666Z,38.45
2022-08-24T12:13:20.856Z,40.00
2022-08-24T12:15:56.896Z,40.33
2022-08-24T12:18:39.916Z,41.27
2022-08-24T12:21:12.546Z,41.57
2022-08-24T12:23:44.727Z,42.20
2022-08-24T12:26:22.860Z,42.28
2022-08-24T12:28:54.621Z,42.74
2022-08-24T12:31:36.646Z,42.09
2022-08-24T12:34:10.891Z,42.52
2022-08-24T12:36:50.816Z,43.13
2022-08-24T12:39:25.297Z,42.84
2022-08-24T12:42:25.541Z,42.99
2022-08-24T12:44:58.833Z,44.51
2022-08-24T12:47:33.737Z,43.90
2022-08-24T12:50:14.950Z,42.88
2022-08-24T12:52:51.767Z,43.06
2022-08-24T12:55:52.652Z,44.38
2022-08-24T12:58:54.061Z,44.76
2022-08-24T13:01:27.833Z,45.11
2022-08-24T13:04:13.640Z,43.79
2022-08-24T13:06:49.016Z,43.35
2022-08-24T13:09:28.736Z,43.78
2022-08-24T13:12:00.807Z,44.02
2022-08-24T13:14:29.883Z,44.19
2022-08-24T13:16:56.471Z,44.22
2022-08-24T13:19:23.758Z,44.48
2022-08-24T13:21:54.512Z,43.99
2022-08-24T13:24:32.953Z,43.86
2022-08-24T13:27:11.278Z,43.17
2022-08-24T13:29:41.568Z,42.25
2022-08-24T13:32:17.597Z,41.98
2022-08-24T13:34:46.313Z,42.92
2022-08-24T13:37:28.143Z,42.08
2022-08-24T13:40:28.295Z,42.25
2022-08-24T13:43:23.779Z,41.58
2022-08-24T13:45:59.329Z,41.67
2022-08-24T13:48:54.733Z,42.42
2022-08-24T13:51:45.349Z,41.78
2022-08-24T13:54:42.232Z,42.12
2022-08-24T13:57:42.960Z,41.93
2022-08-24T14:00:41.605Z,41.97
2022-08-24T14:03:13.579Z,42.32
2022-08-24T14:05:50.616Z,41.80
2022-08-24T14:08:36.264Z,41.86
2022-08-24T14:11:10.817Z,41.66
2022-08-24T14:14:08.118Z,41.96
2022-08-24T14:17:19.984Z,42.34
2022-08-24T14:20:02.966Z,41.83
2022-08-24T14:22:50.858Z,41.05
2022-08-24T14:25:27.993Z,40.90
2022-08-24T14:27:54.454Z,41.60
2022-08-24T14:30:23.349Z,41.33
2022-08-24T14:32:58.825Z,41.71
2022-08-24T14:35:31.827Z,41.44
2022-08-24T14:38:10.613Z,42.52
2022-08-24T14:40:55.061Z,42.13
2022-08-24T14:43:31.283Z,42.78
2022-08-24T14:46:13.347Z,42.64
2022-08-24T14:49:05.401Z,42.66
2022-08-24T14:52:02.412Z,42.71
2022-08-24T14:54:41.402Z,42.03
2022-08-24T14:57:40.297Z,43.40
2022-08-24T15:00:34.918Z,44.30
2022-08-24T15:03:12.211Z,43.92
2022-08-24T15:06:16.010Z,43.71
2022-08-24T15:08:43.099Z,43.50
2022-08-24T15:11:17.742Z,43.34
2022-08-24T15:14:02.456Z,42.96
2022-08-24T15:16:53.950Z,44.12
2022-08-24T15:19:35.592Z,44.06
2022-08-24T15:22:06.751Z,43.64
2022-08-24T15:24:54.925Z,42.96
2022-08-24T15:27:50.923Z,42.93
2022-08-24T15:30:27.354Z,42.90
2022-08-24T15:33:18.454Z,42.66
2022-08-24T15:36:06.614Z,42.48
2022-08-24T15:38:35.513Z,42.53
2022-08-24T15:41:16.172Z,42.36
2022-08-24T15:43:49.083Z,43.00
2022-08-24T15:46:21.840Z,42.46
2022-08-24T15:48:50.555Z,42.86
2022-08-24T15:51:33.993Z,42.55
2022-08-24T15:54:15.729Z,42.58
2022-08-24T15:56:48.550Z,41.82
2022-08-24T15:59:29.482Z,42.72
2022-08-24T16:02:28.537Z,42.57
2022-08-24T16:05:16.747Z,43.13
2022-08-24T16:08:01.718Z,43.99
2022-08-24T16:10:49.542Z,43.83
2022-08-24T16:13:18.779Z,44.77
2022-08-24T16:15:46.690Z,45.26
2022-08-24T16:18:15.269Z,45.53
2022-08-24T16:20:42.207Z,45.38
2022-08-24T16:23:13.507Z,45.81
2022-08-24T16:25:43.662Z,45.89
2022-08-24T16:28:35.499Z,46.17
2022-08-24T16:31:07.962Z,45.83
2022-08-24T16:33:43.640Z,45.96
2022-08-24T16:36:20.789Z,45.48
2022-08-24T16:38:49.888Z,45.39
2022-08-24T16:41:24.236Z,45.44
2022-08-24T16:43:51.381Z,45.09
2022-08-24T16:46:23.447Z,45.35
2022-08-24T16:48:50.268Z,45.58
2022-08-24T16:51:16.770Z,45.24
2022-08-24T16:53:43.770Z,45.52
2022-08-24T16:56:12.585Z,45.31
2022-08-24T16:58:42.750Z,45.62
2022-08-24T17:01:09.270Z,45.23
2022-08-24T17:03:35.769Z,45.50
2022-08-24T17:06:02.302Z,45.37
2022-08-24T17:08:29.000Z,45.38
2022-08-24T17:10:55.626Z,45.54
2022-08-24T17:16:12.164Z,45.36
2022-08-24T17:18:39.191Z,45.96
2022-08-24T17:21:07.749Z,46.42
2022-08-24T17:23:34.424Z,46.48
2022-08-24T17:26:03.410Z,46.19
2022-08-24T17:28:30.791Z,46.20
2022-08-24T17:30:57.295Z,45.92
2022-08-24T17:33:24.056Z,46.00
2022-08-24T17:35:54.316Z,45.89
2022-08-24T17:38:21.547Z,45.56
2022-08-24T17:40:49.500Z,45.95
2022-08-24T17:43:16.428Z,45.64
2022-08-24T17:45:43.051Z,45.80
2022-08-24T17:48:21.201Z,46.33
2022-08-24T17:50:47.689Z,46.94
2022-08-24T17:53:14.161Z,46.72
2022-08-24T17:55:40.652Z,47.66
2022-08-24T17:58:07.312Z,47.62
2022-08-24T18:00:34.173Z,47.72
2022-08-24T18:03:00.797Z,47.88
2022-08-24T18:05:27.353Z,48.68
2022-08-24T18:07:55.733Z,49.70
2022-08-24T18:10:28.017Z,49.76
2022-08-24T18:12:55.802Z,49.49
2022-08-24T18:15:33.601Z,49.27
2022-08-24T18:18:05.372Z,48.74
2022-08-24T18:20:36.416Z,49.12
2022-08-24T18:23:03.269Z,49.32
2022-08-24T18:25:38.063Z,50.24
2022-08-24T18:28:04.761Z,49.26
2022-08-24T18:30:32.028Z,49.27
2022-08-24T18:33:02.219Z,46.99
2022-08-24T18:35:30.701Z,48.73
2022-08-24T18:37:57.325Z,48.95
2022-08-24T18:40:25.173Z,49.46
2022-08-24T18:42:57.419Z,48.68
2022-08-24T18:45:30.750Z,48.73
2022-08-24T18:47:57.378Z,49.27
2022-08-24T18:50:24.059Z,50.23
2022-08-24T18:52:50.638Z,49.46
2022-08-24T18:55:17.170Z,49.49
2022-08-24T18:57:43.648Z,49.59
2022-08-24T19:00:11.037Z,50.07
2022-08-24T19:02:38.190Z,50.15
2022-08-24T19:05:07.075Z,49.72
2022-08-24T19:07:38.432Z,50.59
2022-08-24T19:10:06.444Z,51.27
2022-08-24T19:12:39.285Z,50.89
2022-08-24T19:15:09.632Z,51.43
2022-08-24T19:17:56.529Z,51.54
2022-08-24T19:20:23.087Z,51.92
2022-08-24T19:22:52.297Z,52.51
2022-08-24T19:25:25.919Z,52.86
2022-08-24T19:27:55.143Z,53.39
2022-08-24T19:30:22.108Z,53.35
2022-08-24T19:32:49.065Z,53.23
2022-08-24T19:35:16.248Z,53.25
2022-08-24T19:37:43.541Z,53.19
2022-08-24T19:40:11.405Z,53.33
2022-08-24T19:42:38.119Z,54.22
2022-08-24T19:45:25.694Z,53.71
2022-08-24T19:47:52.285Z,54.07
2022-08-24T19:50:21.274Z,54.03
2022-08-24T19:52:48.320Z,53.81
2022-08-24T19:55:14.986Z,54.44
2022-08-24T19:57:43.180Z,54.27
2022-08-24T20:00:18.850Z,54.42
2022-08-24T20:02:47.433Z,55.23
2022-08-24T20:05:14.377Z,55.21
2022-08-24T20:07:42.011Z,55.04
2022-08-24T20:10:12.857Z,55.03
2022-08-24T20:12:40.330Z,54.87
2022-08-24T20:15:07.267Z,54.73
2022-08-24T20:17:34.978Z,54.68
2022-08-24T20:20:02.301Z,54.80
2022-08-24T20:22:29.188Z,55.48
2022-08-24T20:24:56.101Z,55.77
2022-08-24T20:27:27.683Z,56.31
2022-08-24T20:29:54.512Z,55.28
2022-08-24T20:32:21.757Z,55.72
2022-08-24T20:34:48.612Z,56.52
2022-08-24T20:37:23.305Z,57.71
2022-08-24T20:39:50.060Z,57.93
2022-08-24T20:42:21.105Z,58.12
2022-08-24T20:44:48.125Z,57.00
2022-08-24T20:47:15.143Z,57.80
2022-08-24T20:49:41.900Z,58.66
2022-08-24T20:52:08.789Z,59.05
2022-08-24T20:54:39.735Z,58.54
2022-08-24T20:57:08.620Z,58.19
2022-08-24T20:59:35.387Z,58.66
2022-08-24T21:02:03.195Z,58.75
2022-08-24T21:04:32.746Z,58.37
2022-08-24T21:06:59.363Z,57.55
2022-08-24T21:09:26.479Z,58.70
2022-08-24T21:11:53.045Z,58.38
2022-08-24T21:14:20.030Z,58.35
2022-08-24T21:16:47.176Z,58.77
2022-08-24T21:19:17.343Z,58.09
2022-08-24T21:21:45.117Z,58.84
2022-08-24T21:24:11.831Z,59.13
2022-08-24T21:26:39.188Z,58.84
2022-08-24T21:29:07.157Z,59.53
2022-08-24T21:31:33.922Z,59.25
2022-08-24T21:34:19.350Z,58.61
2022-08-24T21:36:47.782Z,59.74
2022-08-24T21:39:14.289Z,59.40
2022-08-24T21:41:41.189Z,58.76
2022-08-24T21:44:07.753Z,59.70
2022-08-24T21:46:37.389Z,59.07
2022-08-24T21:49:04.634Z,60.02
2022-08-24T21:51:31.499Z,58.96
2022-08-24T21:53:59.756Z,59.90
2022-08-24T21:56:30.733Z,59.37
2022-08-24T21:58:57.330Z,60.20
2022-08-24T22:01:23.900Z,60.36
2022-08-24T22:03:50.503Z,59.98
2022-08-24T22:06:17.066Z,60.12
2022-08-24T22:08:44.328Z,59.87
2022-08-24T22:11:13.213Z,60.51
2022-08-24T22:13:40.294Z,60.39
2022-08-24T22:16:07.676Z,61.24
2022-08-24T22:18:35.449Z,60.86
2022-08-24T22:21:17.107Z,60.89
2022-08-24T22:23:44.306Z,60.73
2022-08-24T22:26:11.186Z,60.38
2022-08-24T22:28:40.287Z,61.22
2022-08-24T22:31:22.673Z,61.49
2022-08-24T22:33:49.894Z,61.74
2022-08-24T22:36:17.361Z,61.30
2022-08-24T22:38:44.399Z,61.37
2022-08-24T22:41:11.339Z,61.38
2022-08-24T22:43:57.239Z,61.55
2022-08-24T22:46:24.352Z,61.59
2022-08-24T22:48:50.938Z,61.10
2022-08-24T22:51:18.751Z,61.47
2022-08-24T22:53:46.159Z,60.91
2022-08-24T22:56:23.029Z,60.99
2022-08-24T22:58:50.046Z,61.10
2022-08-24T23:01:27.332Z,62.14
2022-08-24T23:03:55.307Z,62.09
2022-08-24T23:06:22.049Z,62.13
2022-08-24T23:08:48.760Z,61.94
2022-08-24T23:11:16.298Z,61.76
2022-08-24T23:13:43.112Z,61.73
2022-08-24T23:16:13.309Z,62.13
2022-08-24T23:18:59.595Z,61.94
2022-08-24T23:21:26.496Z,61.87
2022-08-24T23:23:55.394Z,62.17
2022-08-24T23:26:21.933Z,62.22
2022-08-24T23:28:49.409Z,62.19
2022-08-24T23:31:19.019Z,62.33
2022-08-24T23:33:46.084Z,62.02
2022-08-24T23:36:21.066Z,62.36
2022-08-24T23:38:49.160Z,62.49
2022-08-24T23:41:17.920Z,62.87
2022-08-24T23:43:44.462Z,62.77
2022-08-24T23:46:11.756Z,62.33
2022-08-24T23:48:40.508Z,62.73
2022-08-24T23:51:08.942Z,62.71
2022-08-24T23:53:35.986Z,63.28
2022-08-24T23:56:08.553Z,62.91
2022-08-24T23:58:36.314Z,63.16
